Time;durP1;ratioP1;P1;durP2;ratioP2;P2;SDS_P1;SDS_P2;PMS_P1;PMS_P2;Temp;Humidity;BMP_temperature;BMP_pressure;BME280_temperature;BME280_humidity;BME280_pressure;Samples;Min_cycle;Max_cycle;Signal;HPM_P1;HPM_P2
2022/11/18 00:01:13;;;;;;;1.98;0.95;;;19.20;1.00;;;;;;4827592;29;20054;-47
2022/11/18 00:03:41;;;;;;;2.33;0.93;;;19.20;1.00;;;;;;4826859;29;20050;-48
2022/11/18 00:06:14;;;;;;;4.63;1.13;;;19.20;1.00;;;;;;4826806;29;20050;-47
2022/11/18 00:08:41;;;;;;;2.90;0.70;;;19.20;1.00;;;;;;4826444;29;20043;-49
2022/11/18 00:16:56;;;;;;;3.40;0.90;;;19.10;1.00;;;;;;4827190;29;20062;-47
2022/11/18 00:19:26;;;;;;;2.30;0.77;;;19.10;1.00;;;;;;4826678;29;20079;-51
2022/11/18 00:21:53;;;;;;;3.30;0.88;;;19.10;1.00;;;;;;4826834;29;20050;-48
2022/11/18 00:24:20;;;;;;;1.00;0.70;;;19.00;1.00;;;;;;4826796;29;20047;-48
2022/11/18 00:26:48;;;;;;;1.77;1.02;;;19.00;1.00;;;;;;4827143;29;20136;-50
2022/11/18 00:29:15;;;;;;;1.13;0.80;;;19.00;1.00;;;;;;4826301;29;20046;-48
2022/11/18 00:31:43;;;;;;;2.45;0.88;;;19.00;1.00;;;;;;4827122;29;20085;-48
2022/11/18 00:34:12;;;;;;;2.10;0.90;;;18.90;1.00;;;;;;4826362;29;20049;-51
2022/11/18 00:36:40;;;;;;;1.88;0.70;;;18.90;1.00;;;;;;4826662;29;20046;-49
2022/11/18 00:39:07;;;;;;;3.20;1.02;;;18.90;1.00;;;;;;4826076;29;20397;-47
2022/11/18 00:44:19;;;;;;;1.65;1.02;;;18.80;1.00;;;;;;4826543;29;20058;-47
2022/11/18 00:46:46;;;;;;;2.33;0.80;;;18.80;1.00;;;;;;4826400;29;20047;-47
2022/11/18 00:49:13;;;;;;;2.78;0.90;;;18.80;1.00;;;;;;4826014;29;20046;-51
2022/11/18 00:51:40;;;;;;;4.75;0.82;;;18.70;1.00;;;;;;4826360;29;20042;-50
2022/11/18 00:54:07;;;;;;;1.63;0.43;;;18.70;1.00;;;;;;4826232;29;20046;-50
2022/11/18 00:56:34;;;;;;;2.10;1.05;;;18.70;1.00;;;;;;4826049;29;20141;-49
2022/11/18 00:59:01;;;;;;;1.67;0.57;;;18.60;1.00;;;;;;4825539;29;20152;-47
2022/11/18 01:01:29;;;;;;;1.40;0.63;;;18.60;1.00;;;;;;4825522;29;20072;-48
2022/11/18 01:03:56;;;;;;;2.95;0.50;;;18.60;1.00;;;;;;4826478;29;20050;-49
2022/11/18 01:06:23;;;;;;;1.30;0.60;;;18.60;1.00;;;;;;4825738;29;20054;-50
2022/11/18 01:08:50;;;;;;;3.30;1.15;;;18.60;1.00;;;;;;4825568;29;20057;-48
2022/11/18 01:14:03;;;;;;;3.75;0.93;;;18.60;1.00;;;;;;4826395;29;20054;-51
2022/11/18 01:16:30;;;;;;;3.50;0.77;;;18.50;1.00;;;;;;4825722;29;20580;-52
2022/11/18 01:18:57;;;;;;;2.03;0.60;;;18.50;1.00;;;;;;4825839;29;20111;-48
2022/11/18 01:21:24;;;;;;;2.70;1.08;;;18.40;1.00;;;;;;4825795;29;20047;-49
2022/11/18 01:23:51;;;;;;;1.35;0.70;;;18.50;1.00;;;;;;4825933;29;20438;-53
2022/11/18 01:26:18;;;;;;;2.40;0.60;;;18.40;1.00;;;;;;4826174;29;20127;-50
2022/11/18 01:28:45;;;;;;;1.70;0.70;;;18.40;1.00;;;;;;4825736;29;20105;-51
2022/11/18 01:31:15;;;;;;;2.80;0.70;;;18.40;1.00;;;;;;4825595;29;20126;-50
2022/11/18 01:33:43;;;;;;;2.28;0.98;;;18.30;1.00;;;;;;4826099;29;20035;-48
2022/11/18 01:36:26;;;;;;;1.83;0.60;;;18.30;1.00;;;;;;4825574;29;20066;-49
2022/11/18 01:38:54;;;;;;;2.75;0.93;;;18.30;1.00;;;;;;4825230;29;20133;-49
2022/11/18 01:41:24;;;;;;;2.60;1.10;;;18.30;1.00;;;;;;4825686;29;20055;-49
2022/11/18 01:43:54;;;;;;;1.00;0.50;;;18.20;1.00;;;;;;4825370;29;20070;-49
2022/11/18 01:46:23;;;;;;;3.22;0.90;;;18.20;1.00;;;;;;4825505;29;20046;-50
2022/11/18 01:48:57;;;;;;;1.52;0.68;;;18.20;1.00;;;;;;4825060;29;20042;-52
2022/11/18 01:51:32;;;;;;;1.98;0.80;;;18.20;1.00;;;;;;4825230;29;20489;-49
2022/11/18 01:54:05;;;;;;;2.17;0.85;;;18.20;1.00;;;;;;4825262;29;20408;-49
2022/11/18 01:56:50;;;;;;;1.25;0.73;;;18.20;1.00;;;;;;4825656;29;20054;-48
2022/11/18 01:59:20;;;;;;;1.40;0.85;;;18.10;1.00;;;;;;4824711;29;20082;-50
2022/11/18 02:01:48;;;;;;;1.73;1.02;;;18.10;1.00;;;;;;4825030;29;20061;-49
2022/11/18 02:04:15;;;;;;;1.50;0.98;;;18.10;1.00;;;;;;4825535;29;20050;-48
2022/11/18 02:06:44;;;;;;;1.35;0.60;;;18.10;1.00;;;;;;4825130;29;20054;-47
2022/11/18 02:09:14;;;;;;;1.75;0.80;;;18.10;1.00;;;;;;4824421;29;20130;-50
2022/11/18 02:11:50;;;;;;;1.88;1.00;;;18.10;1.00;;;;;;4824484;29;20053;-49
2022/11/18 02:14:45;;;;;;;1.70;0.88;;;18.00;1.00;;;;;;4825546;29;20046;-49
2022/11/18 02:17:35;;;;;;;3.47;0.52;;;18.00;1.00;;;;;;4822333;29;20365;-48
2022/11/18 02:20:08;;;;;;;1.88;0.88;;;18.00;1.00;;;;;;4825108;29;20125;-49
2022/11/18 02:23:14;;;;;;;2.53;0.77;;;18.00;1.00;;;;;;4825187;29;20050;-49
2022/11/18 02:26:24;;;;;;;1.67;0.63;;;17.90;1.00;;;;;;4824778;29;20114;-48
2022/11/18 02:29:18;;;;;;;1.23;0.70;;;17.90;1.00;;;;;;4805775;29;20054;-48
2022/11/18 02:31:59;;;;;;;1.73;0.73;;;17.90;1.00;;;;;;4806441;29;20042;-52
2022/11/18 02:34:34;;;;;;;1.05;0.50;;;17.90;1.00;;;;;;4806987;29;20481;-49
2022/11/18 02:37:30;;;;;;;2.90;0.68;;;17.80;1.00;;;;;;4806876;29;20397;-51
2022/11/18 02:40:22;;;;;;;1.05;0.65;;;17.80;1.00;;;;;;4806683;29;20146;-51
2022/11/18 02:43:03;;;;;;;3.40;0.85;;;17.80;1.00;;;;;;4803744;29;20504;-47
2022/11/18 02:45:32;;;;;;;1.98;0.60;;;17.80;1.00;;;;;;4806528;29;20497;-49
2022/11/18 02:48:04;;;;;;;3.78;0.80;;;17.80;1.00;;;;;;4805959;29;20047;-50
2022/11/18 02:50:33;;;;;;;4.20;1.10;;;17.70;1.00;;;;;;4806096;29;20100;-52
2022/11/18 02:53:03;;;;;;;1.30;0.50;;;17.80;1.00;;;;;;4806803;29;20121;-48
2022/11/18 02:55:33;;;;;;;1.40;0.45;;;17.70;1.00;;;;;;4806304;29;20131;-48
2022/11/18 02:58:02;;;;;;;1.17;0.75;;;17.70;1.00;;;;;;4806435;29;20096;-47
2022/11/18 03:00:30;;;;;;;3.47;0.80;;;17.70;1.00;;;;;;4806007;29;20508;-48
2022/11/18 03:02:57;;;;;;;1.10;0.70;;;17.70;1.00;;;;;;4806497;29;20055;-48
2022/11/18 03:05:41;;;;;;;3.97;1.20;;;17.70;1.00;;;;;;4806287;29;20054;-48
2022/11/18 03:08:15;;;;;;;2.05;0.50;;;17.70;1.00;;;;;;4805907;29;20051;-47
2022/11/18 03:10:51;;;;;;;1.45;0.60;;;17.60;1.00;;;;;;4806025;29;20441;-48
2022/11/18 03:13:38;;;;;;;1.77;0.60;;;17.60;1.00;;;;;;4806668;29;20498;-46
2022/11/18 03:16:12;;;;;;;2.65;0.80;;;17.60;1.00;;;;;;4806395;29;20047;-49
2022/11/18 03:19:04;;;;;;;1.67;0.80;;;17.60;1.00;;;;;;4806151;29;20069;-47
2022/11/18 03:21:38;;;;;;;0.95;0.60;;;17.60;1.00;;;;;;4805257;29;20115;-48
2022/11/18 03:24:19;;;;;;;;;;;17.60;1.00;;;;;;4808190;29;20129;-48
2022/11/18 03:27:03;;;;;;;0.70;0.40;;;17.50;1.00;;;;;;4809993;29;19960;-49
2022/11/18 03:29:38;;;;;;;1.45;0.70;;;17.50;1.00;;;;;;4809103;29;20050;-50
2022/11/18 03:32:11;;;;;;;1.00;0.50;;;17.50;1.00;;;;;;4810477;29;20141;-48
2022/11/18 03:34:43;;;;;;;2.03;0.70;;;17.50;1.00;;;;;;4809948;29;20138;-48
2022/11/18 03:37:14;;;;;;;1.73;0.70;;;17.50;1.00;;;;;;4809826;29;20054;-50
2022/11/18 03:39:50;;;;;;;2.05;0.85;;;17.50;1.00;;;;;;4808898;29;20051;-50
2022/11/18 03:42:24;;;;;;;2.42;0.90;;;17.40;1.00;;;;;;4810033;29;20086;-49
2022/11/18 03:45:02;;;;;;;1.90;0.95;;;17.50;1.00;;;;;;4819284;29;20054;-48
2022/11/18 03:47:35;;;;;;;3.42;1.10;;;17.40;1.00;;;;;;4845964;29;20106;-52
2022/11/18 03:50:30;;;;;;;1.52;0.93;;;17.40;1.00;;;;;;4845311;29;20046;-48
2022/11/18 03:52:59;;;;;;;1.88;0.70;;;17.40;1.00;;;;;;4829189;29;20066;-49
2022/11/18 03:55:33;;;;;;;1.02;0.50;;;17.40;1.00;;;;;;4845786;29;20070;-48
2022/11/18 03:58:10;;;;;;;5.97;1.67;;;17.40;1.00;;;;;;4845471;29;20045;-47
2022/11/18 04:00:42;;;;;;;1.40;0.93;;;17.30;1.00;;;;;;4845333;29;20087;-49
2022/11/18 04:03:10;;;;;;;2.05;0.68;;;17.30;1.00;;;;;;4845458;29;20050;-49
2022/11/18 04:05:40;;;;;;;2.47;1.10;;;17.30;1.00;;;;;;4845789;29;20061;-50
2022/11/18 04:08:12;;;;;;;2.67;0.85;;;17.30;1.00;;;;;;4845096;29;20052;-49
2022/11/18 04:10:48;;;;;;;6.23;0.80;;;17.30;1.00;;;;;;4845598;29;20132;-49
2022/11/18 04:13:23;;;;;;;1.70;0.73;;;17.30;1.00;;;;;;4845400;29;20400;-50
2022/11/18 04:15:50;;;;;;;2.17;0.88;;;17.30;1.00;;;;;;4845396;29;20438;-50
2022/11/18 04:18:17;;;;;;;2.38;0.85;;;17.20;1.00;;;;;;4844810;29;20041;-48
2022/11/18 04:20:44;;;;;;;2.20;0.60;;;17.20;1.00;;;;;;4844694;29;20046;-49
2022/11/18 04:23:11;;;;;;;2.85;1.00;;;17.20;1.00;;;;;;4845182;29;20068;-49
2022/11/18 04:25:38;;;;;;;1.67;0.68;;;17.20;1.00;;;;;;4844610;29;20401;-50
2022/11/18 04:28:05;;;;;;;1.45;0.73;;;17.20;1.00;;;;;;4844489;29;20461;-48
2022/11/18 04:30:32;;;;;;;4.68;1.10;;;17.20;1.00;;;;;;4844583;29;20107;-53
2022/11/18 04:32:59;;;;;;;2.55;1.05;;;17.20;1.00;;;;;;4845003;29;20556;-49
2022/11/18 04:35:27;;;;;;;1.30;0.88;;;17.20;1.00;;;;;;4843867;29;20046;-48
2022/11/18 04:37:54;;;;;;;2.00;0.80;;;17.20;1.00;;;;;;4845089;29;20077;-48
2022/11/18 04:40:21;;;;;;;3.75;1.00;;;17.10;1.00;;;;;;4844600;29;20065;-52
2022/11/18 04:42:47;;;;;;;2.72;0.85;;;17.10;1.00;;;;;;4844742;29;20110;-52
2022/11/18 04:45:14;;;;;;;2.35;0.80;;;17.10;1.00;;;;;;4844655;29;20050;-53
2022/11/18 04:47:41;;;;;;;2.72;1.15;;;17.10;1.00;;;;;;4844428;29;20046;-50
2022/11/18 04:50:08;;;;;;;2.53;0.73;;;17.10;1.00;;;;;;4844017;29;20050;-50
2022/11/18 04:52:35;;;;;;;3.13;0.98;;;17.10;1.00;;;;;;4844596;29;20041;-49
2022/11/18 04:55:02;;;;;;;2.10;0.90;;;17.10;1.00;;;;;;4844412;29;20038;-50
2022/11/18 04:57:29;;;;;;;2.25;0.82;;;17.10;1.00;;;;;;4844412;29;20046;-50
2022/11/18 04:59:56;;;;;;;2.05;0.80;;;17.10;1.00;;;;;;4844018;29;20077;-50
2022/11/18 05:02:23;;;;;;;1.13;0.68;;;17.10;1.00;;;;;;4844391;29;20093;-51
2022/11/18 05:04:49;;;;;;;1.75;1.02;;;17.00;1.00;;;;;;4844132;29;20125;-51
2022/11/18 05:07:17;;;;;;;1.13;0.80;;;17.00;1.00;;;;;;4844224;29;20461;-51
2022/11/18 05:09:44;;;;;;;2.03;0.93;;;17.00;1.00;;;;;;4829149;29;20046;-49
2022/11/18 05:15:00;;;;;;;2.70;0.70;;;17.00;1.00;;;;;;4825901;29;20054;-51
2022/11/18 05:17:27;;;;;;;2.42;1.13;;;17.00;1.00;;;;;;4825868;29;20477;-52
2022/11/18 05:19:53;;;;;;;4.88;1.27;;;17.00;1.00;;;;;;4827838;29;20050;-51
2022/11/18 05:22:20;;;;;;;6.28;0.82;;;17.00;1.00;;;;;;4826317;29;20556;-51
2022/11/18 05:24:47;;;;;;;2.60;1.48;;;17.00;1.00;;;;;;4825845;29;20464;-53
2022/11/18 05:27:14;;;;;;;3.50;1.75;;;16.90;1.00;;;;;;4825196;29;20524;-53
2022/11/18 05:29:42;;;;;;;5.43;1.40;;;16.90;1.00;;;;;;4825153;29;20103;-51
2022/11/18 05:32:09;;;;;;;2.88;1.35;;;16.90;1.00;;;;;;4825482;29;20046;-49
2022/11/18 05:34:35;;;;;;;2.25;1.25;;;16.90;1.00;;;;;;4825494;29;20504;-52
2022/11/18 05:37:02;;;;;;;3.58;1.73;;;16.90;1.00;;;;;;4825056;29;20419;-50
2022/11/18 05:39:31;;;;;;;2.50;1.25;;;16.90;1.00;;;;;;4825072;29;20107;-49
2022/11/18 05:44:44;;;;;;;4.57;1.30;;;16.90;1.00;;;;;;4825883;29;20058;-52
2022/11/18 05:47:11;;;;;;;2.13;1.10;;;16.80;1.00;;;;;;4825513;29;20042;-48
2022/11/18 05:49:38;;;;;;;2.47;1.13;;;16.80;1.00;;;;;;4825153;29;20416;-52
2022/11/18 05:52:05;;;;;;;1.42;1.20;;;16.80;1.00;;;;;;4825280;29;20050;-49
2022/11/18 05:54:31;;;;;;;2.63;1.15;;;16.80;1.00;;;;;;4825164;29;20459;-51
2022/11/18 05:56:58;;;;;;;3.38;1.33;;;16.80;1.00;;;;;;4825110;29;20050;-50
2022/11/18 05:59:25;;;;;;;5.53;0.93;;;16.80;1.00;;;;;;4823795;29;20129;-50
2022/11/18 06:02:00;;;;;;;3.60;1.15;;;16.80;1.00;;;;;;4824486;29;20099;-49
2022/11/18 06:04:30;;;;;;;3.92;1.33;;;16.80;1.00;;;;;;4824941;29;20056;-51
2022/11/18 06:07:06;;;;;;;5.45;2.17;;;16.70;1.00;;;;;;4825134;29;20085;-51
2022/11/18 06:09:36;;;;;;;5.22;1.20;;;16.70;1.00;;;;;;4824913;29;20489;-52
2022/11/18 06:12:04;;;;;;;3.40;1.55;;;16.70;1.00;;;;;;4825301;29;20050;-49
2022/11/18 06:14:34;;;;;;;3.72;1.17;;;16.70;1.00;;;;;;4825013;29;20046;-49
2022/11/18 06:17:05;;;;;;;3.83;1.40;;;16.70;1.00;;;;;;4824914;29;20404;-47
2022/11/18 06:19:32;;;;;;;2.35;1.40;;;16.70;1.00;;;;;;4824667;29;20107;-47
2022/11/18 06:22:01;;;;;;;1.70;0.90;;;16.70;1.00;;;;;;4824844;29;20050;-47
2022/11/18 06:24:28;;;;;;;2.15;0.95;;;16.70;1.00;;;;;;4824925;29;20137;-49
2022/11/18 06:26:56;;;;;;;4.35;1.35;;;16.70;1.00;;;;;;4825543;29;20054;-47
2022/11/18 06:29:23;;;;;;;2.42;1.20;;;16.70;1.00;;;;;;4824596;29;20039;-48
2022/11/18 06:31:53;;;;;;;2.20;1.00;;;16.70;1.00;;;;;;4825194;29;20142;-52
2022/11/18 06:34:20;;;;;;;2.42;1.27;;;16.60;1.00;;;;;;4824830;29;20497;-48
2022/11/18 06:36:47;;;;;;;5.20;1.42;;;16.60;1.00;;;;;;4824750;29;20050;-48
2022/11/18 06:39:14;;;;;;;3.03;1.35;;;16.60;1.00;;;;;;4824691;29;20057;-49
2022/11/18 06:41:41;;;;;;;3.15;1.00;;;16.60;1.00;;;;;;4824384;29;20087;-47
2022/11/18 06:44:11;;;;;;;2.22;1.02;;;16.60;1.00;;;;;;4825032;29;20054;-49
2022/11/18 06:46:56;;;;;;;2.95;1.20;;;16.60;1.00;;;;;;4824761;29;20137;-48
2022/11/18 06:49:25;;;;;;;3.33;1.42;;;16.60;1.00;;;;;;4824296;29;20440;-51
2022/11/18 06:51:52;;;;;;;3.65;1.05;;;16.60;1.00;;;;;;4824487;29;20046;-49
2022/11/18 06:54:19;;;;;;;3.03;1.15;;;16.50;1.00;;;;;;4824465;29;20126;-47
2022/11/18 06:56:46;;;;;;;2.88;1.15;;;16.50;1.00;;;;;;4824536;29;20102;-49
2022/11/18 06:59:13;;;;;;;3.47;1.35;;;16.50;1.00;;;;;;4823968;29;20046;-50
2022/11/18 07:01:41;;;;;;;4.55;1.75;;;16.50;1.00;;;;;;4824498;29;20046;-49
2022/11/18 07:04:08;;;;;;;4.75;1.73;;;16.50;1.00;;;;;;4824983;29;20204;-52
2022/11/18 07:06:36;;;;;;;2.85;1.00;;;16.50;1.00;;;;;;4824089;29;20050;-51
2022/11/18 07:09:05;;;;;;;1.75;1.08;;;16.50;1.00;;;;;;4823599;29;20054;-49
2022/11/18 07:11:33;;;;;;;1.85;0.98;;;16.50;1.00;;;;;;4824129;29;20074;-48
2022/11/18 07:14:00;;;;;;;2.33;1.20;;;16.40;1.00;;;;;;4824105;29;20074;-48
2022/11/18 07:16:27;;;;;;;2.05;1.15;;;16.40;1.00;;;;;;4814677;29;20050;-49
2022/11/18 07:18:55;;;;;;;2.53;1.00;;;16.40;1.00;;;;;;4797759;29;20050;-48
2022/11/18 07:21:25;;;;;;;2.65;1.30;;;16.40;1.00;;;;;;4812029;29;20054;-48
2022/11/18 07:23:53;;;;;;;2.33;1.40;;;16.40;1.00;;;;;;4812856;29;20131;-50
2022/11/18 07:26:21;;;;;;;2.38;0.93;;;16.40;1.00;;;;;;4812924;29;20489;-49
2022/11/18 07:28:48;;;;;;;3.15;1.10;;;16.40;1.00;;;;;;4814331;29;20054;-48
2022/11/18 07:31:17;;;;;;;3.28;1.23;;;16.40;1.00;;;;;;4815503;29;20125;-48
2022/11/18 07:33:46;;;;;;;7.22;1.98;;;16.40;1.00;;;;;;4816770;29;20138;-48
2022/11/18 07:36:18;;;;;;;2.83;1.38;;;16.40;1.00;;;;;;4817821;29;20408;-49
2022/11/18 07:38:46;;;;;;;3.00;1.40;;;16.40;1.00;;;;;;4817860;29;20054;-47
2022/11/18 07:41:16;;;;;;;1.75;1.40;;;16.40;1.00;;;;;;4817666;29;20061;-47
2022/11/18 07:43:44;;;;;;;2.63;1.02;;;16.30;1.00;;;;;;4820803;29;20061;-47
2022/11/18 07:46:32;;;;;;;2.65;1.20;;;16.30;1.00;;;;;;4823774;29;20137;-52
2022/11/18 07:49:00;;;;;;;3.70;1.23;;;16.30;1.00;;;;;;4823233;29;20085;-49
2022/11/18 07:51:30;;;;;;;4.85;0.90;;;16.30;1.00;;;;;;4823772;29;20519;-47
2022/11/18 07:53:57;;;;;;;2.55;1.25;;;16.30;1.00;;;;;;4823730;29;20049;-50
2022/11/18 07:56:24;;;;;;;3.85;1.55;;;16.30;1.00;;;;;;4824458;29;20048;-51
2022/11/18 07:58:55;;;;;;;3.80;1.08;;;16.30;1.00;;;;;;4823282;29;20051;-51
2022/11/18 08:01:27;;;;;;;1.50;0.82;;;16.30;1.00;;;;;;4823967;29;20133;-51
2022/11/18 08:03:54;;;;;;;1.77;1.35;;;16.30;1.00;;;;;;4823765;29;20051;-48
2022/11/18 08:06:21;;;;;;;2.88;1.23;;;16.30;1.00;;;;;;4824173;29;20050;-53
2022/11/18 08:08:49;;;;;;;4.28;1.15;;;16.30;1.00;;;;;;4807173;29;20053;-50
2022/11/18 08:11:18;;;;;;;4.07;1.40;;;16.30;1.00;;;;;;4825189;29;20454;-49
2022/11/18 08:13:50;;;;;;;2.85;1.23;;;16.30;1.00;;;;;;4826829;29;20471;-48
2022/11/18 08:16:19;;;;;;;2.30;0.98;;;16.20;1.00;;;;;;4826914;29;20051;-51
2022/11/18 08:18:46;;;;;;;1.83;1.20;;;16.20;1.00;;;;;;4826322;29;20046;-51
2022/11/18 08:21:15;;;;;;;3.10;1.38;;;16.30;1.00;;;;;;4826782;29;20051;-49
2022/11/18 08:23:42;;;;;;;2.70;1.13;;;16.20;1.00;;;;;;4826596;29;20046;-49
2022/11/18 08:26:12;;;;;;;1.77;0.98;;;16.20;1.00;;;;;;4826641;29;20050;-52
2022/11/18 08:28:43;;;;;;;3.30;1.02;;;16.20;1.00;;;;;;4826427;29;20055;-52
2022/11/18 08:31:13;;;;;;;3.17;1.45;;;16.20;1.00;;;;;;4826768;29;20121;-52
2022/11/18 08:33:40;;;;;;;2.63;0.95;;;16.20;1.00;;;;;;4826561;29;20058;-48
2022/11/18 08:36:13;;;;;;;2.13;1.58;;;16.20;1.00;;;;;;4827075;29;20107;-53
2022/11/18 08:38:40;;;;;;;4.88;1.20;;;16.20;1.00;;;;;;4826162;29;20046;-48
2022/11/18 08:41:09;;;;;;;2.00;1.23;;;16.20;1.00;;;;;;4826668;29;20078;-53
2022/11/18 08:43:36;;;;;;;4.65;1.08;;;16.20;1.00;;;;;;4826383;29;20145;-50
2022/11/18 08:46:03;;;;;;;2.10;1.35;;;16.20;1.00;;;;;;4826595;29;20046;-51
2022/11/18 08:48:30;;;;;;;2.78;1.48;;;16.20;1.00;;;;;;4826080;29;20049;-50
2022/11/18 08:50:58;;;;;;;3.40;1.10;;;16.20;1.00;;;;;;4825916;29;20467;-53
2022/11/18 08:53:24;;;;;;;3.53;0.95;;;16.20;1.00;;;;;;4826391;29;20095;-53
2022/11/18 08:55:56;;;;;;;2.28;1.23;;;16.20;1.00;;;;;;4826166;29;20046;-51
2022/11/18 08:58:23;;;;;;;1.92;1.20;;;16.20;1.00;;;;;;4826090;29;20107;-50
2022/11/18 09:00:50;;;;;;;3.13;1.10;;;16.10;1.00;;;;;;4826452;29;20430;-49
2022/11/18 09:03:18;;;;;;;2.85;1.15;;;16.10;1.00;;;;;;4825820;29;20134;-53
2022/11/18 09:05:44;;;;;;;2.22;1.15;;;16.10;1.00;;;;;;4825953;29;20508;-50
2022/11/18 09:08:11;;;;;;;2.13;1.10;;;16.10;1.00;;;;;;4825582;29;20056;-49
2022/11/18 09:10:38;;;;;;;3.00;1.02;;;16.10;1.00;;;;;;4825976;29;20482;-51
2022/11/18 09:13:05;;;;;;;4.15;1.10;;;16.10;1.00;;;;;;4825800;29;20049;-53
2022/11/18 09:15:52;;;;;;;3.22;0.93;;;16.10;1.00;;;;;;4826441;29;20125;-51
2022/11/18 09:18:19;;;;;;;1.85;0.80;;;16.10;1.00;;;;;;4825465;29;20053;-53
2022/11/18 09:21:00;;;;;;;2.90;1.25;;;16.10;1.00;;;;;;4825843;29;20050;-49
2022/11/18 09:23:27;;;;;;;2.47;1.08;;;16.10;1.00;;;;;;4825907;29;20095;-52
2022/11/18 09:26:02;;;;;;;5.03;1.63;;;16.10;1.00;;;;;;4825586;29;20573;-50
2022/11/18 09:28:29;;;;;;;2.65;1.30;;;16.10;1.00;;;;;;4825714;29;20090;-51
2022/11/18 09:30:56;;;;;;;1.73;0.52;;;16.10;1.00;;;;;;4825561;29;20042;-48
2022/11/18 09:33:23;;;;;;;3.05;1.13;;;16.10;1.00;;;;;;4825330;29;20481;-49
2022/11/18 09:35:50;;;;;;;3.15;1.15;;;16.10;1.00;;;;;;4825607;29;20057;-49
2022/11/18 09:38:17;;;;;;;2.83;1.20;;;16.10;1.00;;;;;;4825186;29;20070;-53
2022/11/18 09:40:54;;;;;;;3.72;1.00;;;16.10;1.00;;;;;;4825257;29;20050;-48
2022/11/18 09:44:19;;;;;;;2.97;1.30;;;16.10;1.00;;;;;;4825164;29;20058;-49
2022/11/18 09:47:04;;;;;;;3.03;1.23;;;16.10;1.00;;;;;;4803811;29;20527;-48
2022/11/18 09:49:38;;;;;;;1.63;1.05;;;16.10;1.00;;;;;;4825135;29;20054;-50
2022/11/18 09:52:25;;;;;;;;;;;16.00;1.00;;;;;;4809252;29;20479;-48
2022/11/18 09:54:54;;;;;;;4.53;1.00;;;16.10;1.00;;;;;;4816518;29;19973;-49
2022/11/18 09:57:46;;;;;;;1.75;1.00;;;16.00;1.00;;;;;;4825246;29;20058;-52
2022/11/18 10:00:19;;;;;;;3.63;1.05;;;16.00;1.00;;;;;;4822139;29;20065;-49
2022/11/18 10:03:03;;;;;;;2.33;1.17;;;16.00;1.00;;;;;;4825213;29;20050;-48
2022/11/18 10:05:57;;;;;;;2.33;1.20;;;16.00;1.00;;;;;;4825184;29;20465;-50
2022/11/18 10:08:47;;;;;;;1.45;0.82;;;16.00;1.00;;;;;;4824780;29;20081;-48
2022/11/18 10:11:23;;;;;;;1.30;0.85;;;16.00;1.00;;;;;;4814943;29;20137;-48
2022/11/18 10:14:27;;;;;;;1.40;0.98;;;16.00;1.00;;;;;;4825049;29;20533;-48
2022/11/18 10:17:17;;;;;;;1.58;0.93;;;16.00;1.00;;;;;;4825019;29;20462;-48
2022/11/18 10:20:01;;;;;;;3.97;1.30;;;16.00;1.00;;;;;;4824604;29;20493;-49
2022/11/18 10:22:37;;;;;;;4.68;1.17;;;16.00;1.00;;;;;;4824686;29;20398;-50
2022/11/18 10:25:15;;;;;;;4.82;1.15;;;16.00;1.00;;;;;;4825064;29;20054;-49
2022/11/18 10:27:44;;;;;;;3.38;1.27;;;16.00;1.00;;;;;;4825002;29;20497;-50
2022/11/18 10:30:21;;;;;;;3.83;1.20;;;16.00;1.00;;;;;;4824850;29;20058;-47
2022/11/18 10:32:58;;;;;;;2.92;1.17;;;16.00;1.00;;;;;;4824156;29;20468;-50
2022/11/18 10:35:36;;;;;;;2.22;0.75;;;16.00;1.00;;;;;;4824695;29;20042;-50
2022/11/18 10:38:16;;;;;;;2.20;1.00;;;16.00;1.00;;;;;;4824441;29;20125;-49
2022/11/18 10:40:56;;;;;;;3.55;1.02;;;15.90;1.00;;;;;;4824714;29;20091;-51
2022/11/18 10:44:01;;;;;;;2.00;1.30;;;15.90;1.00;;;;;;4824505;29;20133;-52
2022/11/18 10:46:27;;;;;;;4.10;0.93;;;16.00;1.00;;;;;;4804983;29;20059;-50
2022/11/18 10:49:09;;;;;;;1.95;1.00;;;15.90;1.00;;;;;;4803821;29;20057;-53
2022/11/18 10:51:41;;;;;;;2.53;0.90;;;16.00;1.00;;;;;;4815755;29;20073;-47
2022/11/18 10:54:17;;;;;;;3.50;0.93;;;15.90;1.00;;;;;;4824548;29;20129;-48
2022/11/18 10:56:49;;;;;;;2.22;1.33;;;15.90;1.00;;;;;;4824634;29;20047;-49
2022/11/18 10:59:35;;;;;;;3.08;1.20;;;15.90;1.00;;;;;;4824024;29;20066;-49
2022/11/18 11:02:23;;;;;;;3.22;1.08;;;15.90;1.00;;;;;;4824417;29;20042;-48
2022/11/18 11:04:52;;;;;;;5.97;1.27;;;15.90;1.00;;;;;;4824358;29;20058;-48
2022/11/18 11:07:32;;;;;;;3.80;1.80;;;15.90;1.00;;;;;;4824661;29;20042;-53
2022/11/18 11:10:11;;;;;;;3.05;1.40;;;15.90;1.00;;;;;;4824187;29;20054;-48
2022/11/18 11:13:07;;;;;;;3.63;1.20;;;15.90;1.00;;;;;;4824702;29;20409;-50
2022/11/18 11:15:47;;;;;;;3.20;1.50;;;15.90;1.00;;;;;;4823540;29;20427;-51
2022/11/18 11:21:21;;;;;;;6.65;1.50;;;15.90;1.00;;;;;;4824113;29;20050;-53
2022/11/18 11:23:48;;;;;;;2.77;1.37;;;15.90;1.00;;;;;;4824504;29;20073;-53
2022/11/18 11:26:30;;;;;;;2.40;1.33;;;15.90;1.00;;;;;;4824541;29;20393;-52
2022/11/18 11:29:50;;;;;;;3.45;1.48;;;15.90;1.00;;;;;;4823466;29;20494;-50
2022/11/18 11:32:42;;;;;;;4.43;1.73;;;15.90;1.00;;;;;;4824139;29;20053;-49
2022/11/18 11:35:14;;;;;;;4.65;1.48;;;15.90;1.00;;;;;;4824108;29;20042;-50
2022/11/18 11:37:57;;;;;;;2.83;1.48;;;15.90;1.00;;;;;;4823721;29;20077;-48
2022/11/18 11:40:33;;;;;;;3.03;1.13;;;15.90;1.00;;;;;;4824320;29;20568;-48
2022/11/18 11:43:03;;;;;;;1.67;0.90;;;15.90;1.00;;;;;;4824105;29;20077;-48
2022/11/18 11:45:51;;;;;;;3.00;1.80;;;15.90;1.00;;;;;;4826153;29;20194;-49
2022/11/18 11:48:46;;;;;;;2.45;1.27;;;15.80;1.00;;;;;;4827006;29;20137;-49
2022/11/18 11:51:26;;;;;;;2.47;1.52;;;15.80;1.00;;;;;;4827541;29;20416;-50
2022/11/18 11:53:56;;;;;;;5.97;1.90;;;15.80;1.00;;;;;;4826967;29;20489;-50
2022/11/18 11:56:49;;;;;;;1.92;1.30;;;15.80;1.00;;;;;;4826758;29;20141;-48
2022/11/18 12:00:12;;;;;;;2.07;1.57;;;15.80;1.00;;;;;;4825809;29;20063;-47
2022/11/18 12:03:00;;;;;;;1.90;1.15;;;15.90;1.00;;;;;;4807066;29;20464;-50
2022/11/18 12:05:39;;;;;;;3.72;1.33;;;15.80;1.00;;;;;;4806992;29;20147;-50
2022/11/18 12:08:16;;;;;;;2.53;1.40;;;15.80;1.00;;;;;;4820599;29;20133;-50
2022/11/18 12:11:04;;;;;;;2.05;1.27;;;15.80;1.00;;;;;;4826881;29;20084;-51
2022/11/18 12:13:58;;;;;;;4.78;1.58;;;15.80;1.00;;;;;;4827191;29;20065;-49
2022/11/18 12:16:31;;;;;;;3.28;1.67;;;15.80;1.00;;;;;;4827092;29;20481;-48
2022/11/18 12:19:06;;;;;;;3.03;1.85;;;15.80;1.00;;;;;;4826391;29;20038;-51
2022/11/18 12:21:45;;;;;;;4.68;2.20;;;15.80;1.00;;;;;;4826821;29;20054;-49
2022/11/18 12:24:30;;;;;;;2.38;1.45;;;15.80;1.00;;;;;;4826717;29;20050;-49
2022/11/18 12:27:00;;;;;;;2.97;2.05;;;15.80;1.00;;;;;;4826831;29;20046;-49
2022/11/18 12:29:43;;;;;;;3.63;1.80;;;15.80;1.00;;;;;;4826142;29;20462;-52
2022/11/18 12:32:35;;;;;;;5.13;1.48;;;15.80;1.00;;;;;;4826642;29;20054;-51
2022/11/18 12:35:23;;;;;;;6.45;2.53;;;15.80;1.00;;;;;;4826687;29;20413;-48
2022/11/18 12:37:50;;;;;;;3.47;2.47;;;15.80;1.00;;;;;;4826128;29;20129;-51
2022/11/18 12:40:35;;;;;;;2.90;1.95;;;15.80;1.00;;;;;;4826301;29;20050;-52
2022/11/18 12:46:08;;;;;;;2.75;2.38;;;15.80;1.00;;;;;;4826406;29;20050;-47
2022/11/18 12:48:41;;;;;;;3.33;2.03;;;15.80;1.00;;;;;;4826039;29;20051;-47
2022/11/18 12:51:14;;;;;;;3.28;2.00;;;15.80;1.00;;;;;;4826042;29;20046;-49
2022/11/18 12:53:46;;;;;;;4.63;1.90;;;15.80;1.00;;;;;;4826224;29;20103;-51
2022/11/18 12:56:16;;;;;;;4.22;1.85;;;15.80;1.00;;;;;;4825427;29;20042;-51
2022/11/18 12:58:54;;;;;;;5.25;1.85;;;15.80;1.00;;;;;;4825807;29;20404;-49
2022/11/18 13:01:24;;;;;;;2.30;1.77;;;15.70;1.00;;;;;;4826177;29;20043;-51
2022/11/18 13:03:52;;;;;;;2.42;1.63;;;15.70;1.00;;;;;;4825668;29;20050;-50
2022/11/18 13:06:31;;;;;;;4.90;2.10;;;15.70;1.00;;;;;;4826024;29;20462;-51
2022/11/18 13:09:01;;;;;;;2.70;1.90;;;15.70;1.00;;;;;;4825594;29;20484;-48
2022/11/18 13:11:45;;;;;;;3.70;1.45;;;15.70;1.00;;;;;;4825779;29;20389;-50
2022/11/18 13:17:50;;;;;;;3.45;1.58;;;15.70;1.00;;;;;;4825976;29;20050;-50
2022/11/18 13:20:23;;;;;;;2.75;1.48;;;15.70;1.00;;;;;;4825731;29;20053;-51
2022/11/18 13:25:37;;;;;;;4.90;2.10;;;15.70;1.00;;;;;;4826067;29;20505;-52
2022/11/18 13:28:16;;;;;;;4.18;1.60;;;15.70;1.00;;;;;;4825241;29;20065;-50
2022/11/18 13:30:55;;;;;;;3.00;1.70;;;15.70;1.00;;;;;;4825419;29;20103;-48
2022/11/18 13:33:22;;;;;;;2.80;1.90;;;15.70;1.00;;;;;;4825655;29;20042;-46
2022/11/18 13:35:49;;;;;;;3.45;2.08;;;15.70;1.00;;;;;;4825608;29;20047;-48
2022/11/18 13:38:24;;;;;;;6.10;2.38;;;15.70;1.00;;;;;;4825065;29;20057;-48
2022/11/18 13:41:04;;;;;;;3.15;2.10;;;15.70;1.00;;;;;;4825457;29;20050;-48
2022/11/18 13:43:32;;;;;;;3.83;2.22;;;15.70;1.00;;;;;;4825417;29;20061;-49
2022/11/18 13:46:23;;;;;;;3.15;1.63;;;15.70;1.00;;;;;;4825473;29;20051;-51
2022/11/18 13:48:58;;;;;;;2.33;1.63;;;15.70;1.00;;;;;;4824976;29;20577;-50
2022/11/18 13:51:25;;;;;;;1.98;1.08;;;15.70;1.00;;;;;;4825344;29;20046;-48
2022/11/18 13:53:52;;;;;;;7.10;1.55;;;15.70;1.00;;;;;;4825352;29;20450;-57
2022/11/18 13:56:23;;;;;;;3.78;1.95;;;15.70;1.00;;;;;;4825984;29;20096;-49
2022/11/18 13:58:59;;;;;;;2.47;1.60;;;15.70;1.00;;;;;;4824939;29;20515;-49